sensor_id;sensor_type;location;lat;lon;timestamp;temperature;humidity
65582;DHT22;52231;40.090;18.348;2024-01-30T00:01:39;3.00;73.80
65582;DHT22;52231;40.090;18.348;2024-01-30T00:04:34;3.00;73.80
65582;DHT22;52231;40.090;18.348;2024-01-30T00:07:16;2.90;73.80
65582;DHT22;52231;40.090;18.348;2024-01-30T00:10:06;2.80;74.00
65582;DHT22;52231;40.090;18.348;2024-01-30T00:12:51;2.80;74.00
65582;DHT22;52231;40.090;18.348;2024-01-30T00:15:39;2.70;74.20
65582;DHT22;52231;40.090;18.348;2024-01-30T00:18:40;2.70;74.10
65582;DHT22;52231;40.090;18.348;2024-01-30T00:21:24;2.70;74.10
65582;DHT22;52231;40.090;18.348;2024-01-30T00:24:15;2.70;74.10
65582;DHT22;52231;40.090;18.348;2024-01-30T00:27:09;2.70;74.10
65582;DHT22;52231;40.090;18.348;2024-01-30T00:29:43;2.70;74.10
65582;DHT22;52231;40.090;18.348;2024-01-30T00:32:31;2.70;74.10
65582;DHT22;52231;40.090;18.348;2024-01-30T00:35:06;2.60;74.20
65582;DHT22;52231;40.090;18.348;2024-01-30T00:37:48;2.60;74.40
65582;DHT22;52231;40.090;18.348;2024-01-30T00:40:35;2.50;74.50
65582;DHT22;52231;40.090;18.348;2024-01-30T00:43:23;2.40;74.70
65582;DHT22;52231;40.090;18.348;2024-01-30T00:46:08;2.30;74.90
65582;DHT22;52231;40.090;18.348;2024-01-30T00:48:45;2.30;75.20
65582;DHT22;52231;40.090;18.348;2024-01-30T00:51:19;2.20;75.40
65582;DHT22;52231;40.090;18.348;2024-01-30T00:54:14;2.20;75.60
65582;DHT22;52231;40.090;18.348;2024-01-30T00:57:07;2.10;75.80
65582;DHT22;52231;40.090;18.348;2024-01-30T00:59:50;2.00;76.00
65582;DHT22;52231;40.090;18.348;2024-01-30T01:02:30;2.00;76.10
65582;DHT22;52231;40.090;18.348;2024-01-30T01:05:17;1.90;76.30
65582;DHT22;52231;40.090;18.348;2024-01-30T01:08:09;1.90;76.40
65582;DHT22;52231;40.090;18.348;2024-01-30T01:10:50;1.90;76.60
65582;DHT22;52231;40.090;18.348;2024-01-30T01:13:30;1.90;76.60
65582;DHT22;52231;40.090;18.348;2024-01-30T01:16:07;1.80;76.70
65582;DHT22;52231;40.090;18.348;2024-01-30T01:18:57;1.80;76.90
65582;DHT22;52231;40.090;18.348;2024-01-30T01:22:01;1.80;77.30
65582;DHT22;52231;40.090;18.348;2024-01-30T01:24:32;1.80;77.40
65582;DHT22;52231;40.090;18.348;2024-01-30T01:27:05;1.80;77.50
65582;DHT22;52231;40.090;18.348;2024-01-30T01:29:48;1.80;77.50
65582;DHT22;52231;40.090;18.348;2024-01-30T01:32:20;1.90;77.60
65582;DHT22;52231;40.090;18.348;2024-01-30T01:35:53;1.90;77.30
65582;DHT22;52231;40.090;18.348;2024-01-30T01:38:36;1.90;77.20
65582;DHT22;52231;40.090;18.348;2024-01-30T01:41:40;1.80;77.10
65582;DHT22;52231;40.090;18.348;2024-01-30T01:44:28;1.70;77.30
65582;DHT22;52231;40.090;18.348;2024-01-30T01:47:23;1.60;77.50
65582;DHT22;52231;40.090;18.348;2024-01-30T01:50:23;1.50;77.80
65582;DHT22;52231;40.090;18.348;2024-01-30T01:53:05;1.50;78.10
65582;DHT22;52231;40.090;18.348;2024-01-30T01:56:03;1.40;78.40
65582;DHT22;52231;40.090;18.348;2024-01-30T01:58:39;1.40;78.70
65582;DHT22;52231;40.090;18.348;2024-01-30T02:01:23;1.30;79.00
65582;DHT22;52231;40.090;18.348;2024-01-30T02:04:30;1.40;79.20
65582;DHT22;52231;40.090;18.348;2024-01-30T02:07:33;1.30;79.40
65582;DHT22;52231;40.090;18.348;2024-01-30T02:10:18;1.20;79.80
65582;DHT22;52231;40.090;18.348;2024-01-30T02:13:12;1.20;80.00
65582;DHT22;52231;40.090;18.348;2024-01-30T02:15:49;1.20;80.10
65582;DHT22;52231;40.090;18.348;2024-01-30T02:18:36;1.20;80.20
65582;DHT22;52231;40.090;18.348;2024-01-30T02:21:24;1.20;80.20
65582;DHT22;52231;40.090;18.348;2024-01-30T02:24:01;1.20;80.20
65582;DHT22;52231;40.090;18.348;2024-01-30T02:26:41;1.10;80.00
65582;DHT22;52231;40.090;18.348;2024-01-30T02:29:18;1.20;79.90
65582;DHT22;52231;40.090;18.348;2024-01-30T02:32:12;1.10;79.80
65582;DHT22;52231;40.090;18.348;2024-01-30T02:34:53;1.20;79.70
65582;DHT22;52231;40.090;18.348;2024-01-30T02:37:32;1.20;79.40
65582;DHT22;52231;40.090;18.348;2024-01-30T02:40:17;1.20;79.30
65582;DHT22;52231;40.090;18.348;2024-01-30T02:42:58;1.20;79.10
65582;DHT22;52231;40.090;18.348;2024-01-30T02:46:04;1.10;79.00
65582;DHT22;52231;40.090;18.348;2024-01-30T02:48:50;1.10;79.00
65582;DHT22;52231;40.090;18.348;2024-01-30T02:51:49;1.10;79.10
65582;DHT22;52231;40.090;18.348;2024-01-30T02:54:47;1.20;79.10
65582;DHT22;52231;40.090;18.348;2024-01-30T02:57:24;1.10;79.10
65582;DHT22;52231;40.090;18.348;2024-01-30T03:00:20;1.10;79.10
65582;DHT22;52231;40.090;18.348;2024-01-30T03:03:03;1.00;79.10
65582;DHT22;52231;40.090;18.348;2024-01-30T03:05:57;1.00;79.30
65582;DHT22;52231;40.090;18.348;2024-01-30T03:09:20;1.00;79.40
65582;DHT22;52231;40.090;18.348;2024-01-30T03:12:07;1.00;79.50
65582;DHT22;52231;40.090;18.348;2024-01-30T03:15:11;1.00;79.50
65582;DHT22;52231;40.090;18.348;2024-01-30T03:17:59;1.10;79.60
65582;DHT22;52231;40.090;18.348;2024-01-30T03:20:50;1.20;79.60
65582;DHT22;52231;40.090;18.348;2024-01-30T03:23:56;1.20;79.50
65582;DHT22;52231;40.090;18.348;2024-01-30T03:26:49;1.30;79.50
65582;DHT22;52231;40.090;18.348;2024-01-30T03:29:23;1.30;79.50
65582;DHT22;52231;40.090;18.348;2024-01-30T03:32:11;1.50;79.40
65582;DHT22;52231;40.090;18.348;2024-01-30T03:34:47;1.60;79.20
65582;DHT22;52231;40.090;18.348;2024-01-30T03:37:45;1.60;79.00
65582;DHT22;52231;40.090;18.348;2024-01-30T03:40:32;1.50;78.70
65582;DHT22;52231;40.090;18.348;2024-01-30T03:43:17;1.50;78.70
65582;DHT22;52231;40.090;18.348;2024-01-30T03:46:01;1.40;78.60
65582;DHT22;52231;40.090;18.348;2024-01-30T03:48:40;1.30;78.60
65582;DHT22;52231;40.090;18.348;2024-01-30T03:51:47;1.20;78.80
65582;DHT22;52231;40.090;18.348;2024-01-30T03:54:31;1.20;79.00
65582;DHT22;52231;40.090;18.348;2024-01-30T03:57:13;1.10;79.20
65582;DHT22;52231;40.090;18.348;2024-01-30T03:59:42;1.10;79.40
65582;DHT22;52231;40.090;18.348;2024-01-30T04:02:11;1.10;79.60
65582;DHT22;52231;40.090;18.348;2024-01-30T04:04:42;1.10;79.70
65582;DHT22;52231;40.090;18.348;2024-01-30T04:07:10;1.10;79.50
65582;DHT22;52231;40.090;18.348;2024-01-30T04:09:38;1.10;79.60
65582;DHT22;52231;40.090;18.348;2024-01-30T04:12:07;1.00;79.50
65582;DHT22;52231;40.090;18.348;2024-01-30T04:14:37;1.00;79.50
65582;DHT22;52231;40.090;18.348;2024-01-30T04:17:06;0.90;79.60
65582;DHT22;52231;40.090;18.348;2024-01-30T04:19:37;0.90;79.70
65582;DHT22;52231;40.090;18.348;2024-01-30T04:22:06;0.90;79.80
65582;DHT22;52231;40.090;18.348;2024-01-30T04:24:34;0.80;79.80
65582;DHT22;52231;40.090;18.348;2024-01-30T04:27:02;0.80;79.80
65582;DHT22;52231;40.090;18.348;2024-01-30T04:29:30;0.80;79.90
65582;DHT22;52231;40.090;18.348;2024-01-30T04:32:00;0.80;79.90
65582;DHT22;52231;40.090;18.348;2024-01-30T04:34:28;0.80;79.70
65582;DHT22;52231;40.090;18.348;2024-01-30T04:36:56;0.80;79.50
65582;DHT22;52231;40.090;18.348;2024-01-30T04:39:25;0.70;79.50
65582;DHT22;52231;40.090;18.348;2024-01-30T04:41:53;0.70;79.50
65582;DHT22;52231;40.090;18.348;2024-01-30T04:44:21;0.60;79.60
65582;DHT22;52231;40.090;18.348;2024-01-30T04:46:49;0.70;79.80
65582;DHT22;52231;40.090;18.348;2024-01-30T04:49:17;0.70;79.80
65582;DHT22;52231;40.090;18.348;2024-01-30T04:51:45;0.60;79.90
65582;DHT22;52231;40.090;18.348;2024-01-30T04:54:14;0.70;80.00
65582;DHT22;52231;40.090;18.348;2024-01-30T04:56:42;0.80;79.90
65582;DHT22;52231;40.090;18.348;2024-01-30T04:59:10;0.90;79.80
65582;DHT22;52231;40.090;18.348;2024-01-30T05:01:38;0.90;79.60
65582;DHT22;52231;40.090;18.348;2024-01-30T05:04:09;0.80;79.50
65582;DHT22;52231;40.090;18.348;2024-01-30T05:06:39;0.80;79.40
65582;DHT22;52231;40.090;18.348;2024-01-30T05:09:07;0.80;79.40
65582;DHT22;52231;40.090;18.348;2024-01-30T05:11:38;1.00;79.50
65582;DHT22;52231;40.090;18.348;2024-01-30T05:14:07;1.10;78.80
65582;DHT22;52231;40.090;18.348;2024-01-30T05:16:36;1.20;78.40
65582;DHT22;52231;40.090;18.348;2024-01-30T05:19:05;1.30;78.10
65582;DHT22;52231;40.090;18.348;2024-01-30T05:21:33;1.50;77.60
65582;DHT22;52231;40.090;18.348;2024-01-30T05:24:01;1.60;77.00
65582;DHT22;52231;40.090;18.348;2024-01-30T05:26:29;1.60;76.50
65582;DHT22;52231;40.090;18.348;2024-01-30T05:28:58;1.60;76.00
65582;DHT22;52231;40.090;18.348;2024-01-30T05:31:26;1.60;75.50
65582;DHT22;52231;40.090;18.348;2024-01-30T05:33:55;1.50;75.30
65582;DHT22;52231;40.090;18.348;2024-01-30T05:36:23;1.50;75.10
65582;DHT22;52231;40.090;18.348;2024-01-30T05:38:51;1.40;74.80
65582;DHT22;52231;40.090;18.348;2024-01-30T05:41:19;1.30;74.80
65582;DHT22;52231;40.090;18.348;2024-01-30T05:43:49;1.30;74.90
65582;DHT22;52231;40.090;18.348;2024-01-30T05:46:20;1.30;74.80
65582;DHT22;52231;40.090;18.348;2024-01-30T05:48:50;1.30;74.70
65582;DHT22;52231;40.090;18.348;2024-01-30T05:51:19;1.40;74.50
65582;DHT22;52231;40.090;18.348;2024-01-30T05:53:47;1.40;74.20
65582;DHT22;52231;40.090;18.348;2024-01-30T05:56:15;1.50;73.80
65582;DHT22;52231;40.090;18.348;2024-01-30T05:58:43;1.70;73.30
65582;DHT22;52231;40.090;18.348;2024-01-30T06:01:11;1.80;72.80
65582;DHT22;52231;40.090;18.348;2024-01-30T06:03:40;1.90;72.50
65582;DHT22;52231;40.090;18.348;2024-01-30T06:06:08;2.00;72.30
65582;DHT22;52231;40.090;18.348;2024-01-30T06:08:37;2.20;71.90
65582;DHT22;52231;40.090;18.348;2024-01-30T06:11:05;2.50;71.10
65582;DHT22;52231;40.090;18.348;2024-01-30T06:13:33;2.70;70.30
65582;DHT22;52231;40.090;18.348;2024-01-30T06:16:02;2.80;69.40
65582;DHT22;52231;40.090;18.348;2024-01-30T06:18:30;2.90;69.00
65582;DHT22;52231;40.090;18.348;2024-01-30T06:20:59;3.10;68.30
65582;DHT22;52231;40.090;18.348;2024-01-30T06:23:27;3.30;67.70
65582;DHT22;52231;40.090;18.348;2024-01-30T06:25:55;3.50;67.20
65582;DHT22;52231;40.090;18.348;2024-01-30T06:28:23;3.70;67.00
65582;DHT22;52231;40.090;18.348;2024-01-30T06:30:51;3.80;66.30
65582;DHT22;52231;40.090;18.348;2024-01-30T06:33:20;4.10;65.80
65582;DHT22;52231;40.090;18.348;2024-01-30T06:35:48;4.30;65.20
65582;DHT22;52231;40.090;18.348;2024-01-30T06:38:16;4.50;64.70
65582;DHT22;52231;40.090;18.348;2024-01-30T06:40:45;4.70;64.30
65582;DHT22;52231;40.090;18.348;2024-01-30T06:43:13;4.90;63.60
65582;DHT22;52231;40.090;18.348;2024-01-30T06:45:41;5.10;63.40
65582;DHT22;52231;40.090;18.348;2024-01-30T06:48:10;5.30;62.50
65582;DHT22;52231;40.090;18.348;2024-01-30T06:50:38;5.50;61.60
65582;DHT22;52231;40.090;18.348;2024-01-30T06:53:06;5.70;60.80
65582;DHT22;52231;40.090;18.348;2024-01-30T06:55:35;5.90;59.70
65582;DHT22;52231;40.090;18.348;2024-01-30T06:58:03;6.20;59.10
65582;DHT22;52231;40.090;18.348;2024-01-30T07:00:31;6.30;58.50
65582;DHT22;52231;40.090;18.348;2024-01-30T07:02:59;6.60;57.90
65582;DHT22;52231;40.090;18.348;2024-01-30T07:05:27;6.80;57.20
65582;DHT22;52231;40.090;18.348;2024-01-30T07:07:55;7.00;56.70
65582;DHT22;52231;40.090;18.348;2024-01-30T07:10:23;7.10;56.40
65582;DHT22;52231;40.090;18.348;2024-01-30T07:12:52;7.30;56.10
65582;DHT22;52231;40.090;18.348;2024-01-30T07:15:20;7.60;55.70
65582;DHT22;52231;40.090;18.348;2024-01-30T07:17:48;7.70;54.70
65582;DHT22;52231;40.090;18.348;2024-01-30T07:20:16;7.80;54.10
65582;DHT22;52231;40.090;18.348;2024-01-30T07:22:47;8.00;53.60
65582;DHT22;52231;40.090;18.348;2024-01-30T07:25:16;8.20;53.20
65582;DHT22;52231;40.090;18.348;2024-01-30T07:27:45;8.30;52.50
65582;DHT22;52231;40.090;18.348;2024-01-30T07:30:13;8.40;51.90
65582;DHT22;52231;40.090;18.348;2024-01-30T07:32:41;8.50;50.90
65582;DHT22;52231;40.090;18.348;2024-01-30T07:35:09;8.60;50.60
65582;DHT22;52231;40.090;18.348;2024-01-30T07:37:39;8.60;49.50
65582;DHT22;52231;40.090;18.348;2024-01-30T07:40:07;8.80;49.50
65582;DHT22;52231;40.090;18.348;2024-01-30T07:42:36;8.90;48.80
65582;DHT22;52231;40.090;18.348;2024-01-30T07:45:08;9.00;48.60
65582;DHT22;52231;40.090;18.348;2024-01-30T07:47:37;9.10;49.20
65582;DHT22;52231;40.090;18.348;2024-01-30T07:50:06;9.20;48.80
65582;DHT22;52231;40.090;18.348;2024-01-30T07:52:34;9.20;49.00
65582;DHT22;52231;40.090;18.348;2024-01-30T07:55:03;9.20;48.40
65582;DHT22;52231;40.090;18.348;2024-01-30T07:57:31;9.30;48.70
65582;DHT22;52231;40.090;18.348;2024-01-30T08:00:00;9.50;48.50
65582;DHT22;52231;40.090;18.348;2024-01-30T08:02:33;9.60;47.60
65582;DHT22;52231;40.090;18.348;2024-01-30T08:05:02;9.70;47.90
65582;DHT22;52231;40.090;18.348;2024-01-30T08:07:30;9.80;47.50
65582;DHT22;52231;40.090;18.348;2024-01-30T08:09:59;9.80;46.60
65582;DHT22;52231;40.090;18.348;2024-01-30T08:12:27;9.90;46.50
65582;DHT22;52231;40.090;18.348;2024-01-30T08:14:55;10.00;46.30
65582;DHT22;52231;40.090;18.348;2024-01-30T08:17:23;10.10;46.00
65582;DHT22;52231;40.090;18.348;2024-01-30T08:19:51;10.10;46.00
65582;DHT22;52231;40.090;18.348;2024-01-30T08:22:20;10.30;45.80
65582;DHT22;52231;40.090;18.348;2024-01-30T08:24:48;10.40;45.40
65582;DHT22;52231;40.090;18.348;2024-01-30T08:27:16;10.60;45.00
65582;DHT22;52231;40.090;18.348;2024-01-30T08:29:45;10.50;44.70
65582;DHT22;52231;40.090;18.348;2024-01-30T08:32:13;10.40;43.50
65582;DHT22;52231;40.090;18.348;2024-01-30T08:34:41;10.30;43.40
65582;DHT22;52231;40.090;18.348;2024-01-30T08:37:10;10.50;43.60
65582;DHT22;52231;40.090;18.348;2024-01-30T08:39:38;10.50;43.40
65582;DHT22;52231;40.090;18.348;2024-01-30T08:42:06;10.60;44.20
65582;DHT22;52231;40.090;18.348;2024-01-30T08:44:35;10.50;43.90
65582;DHT22;52231;40.090;18.348;2024-01-30T08:47:04;10.60;43.90
65582;DHT22;52231;40.090;18.348;2024-01-30T08:49:32;10.70;44.20
65582;DHT22;52231;40.090;18.348;2024-01-30T08:52:00;10.90;44.90
65582;DHT22;52231;40.090;18.348;2024-01-30T08:54:29;10.90;44.70
65582;DHT22;52231;40.090;18.348;2024-01-30T08:56:57;10.90;44.00
65582;DHT22;52231;40.090;18.348;2024-01-30T08:59:26;10.80;43.40
65582;DHT22;52231;40.090;18.348;2024-01-30T09:01:54;10.80;42.60
65582;DHT22;52231;40.090;18.348;2024-01-30T09:04:26;10.90;42.30
65582;DHT22;52231;40.090;18.348;2024-01-30T09:06:55;10.90;41.50
65582;DHT22;52231;40.090;18.348;2024-01-30T09:09:23;10.80;41.50
65582;DHT22;52231;40.090;18.348;2024-01-30T09:11:51;10.80;41.80
65582;DHT22;52231;40.090;18.348;2024-01-30T09:14:19;10.80;41.90
65582;DHT22;52231;40.090;18.348;2024-01-30T09:16:47;11.00;42.70
65582;DHT22;52231;40.090;18.348;2024-01-30T09:19:16;11.10;42.00
65582;DHT22;52231;40.090;18.348;2024-01-30T09:21:45;11.10;41.20
65582;DHT22;52231;40.090;18.348;2024-01-30T09:24:13;11.30;40.80
65582;DHT22;52231;40.090;18.348;2024-01-30T09:26:41;11.20;39.50
65582;DHT22;52231;40.090;18.348;2024-01-30T09:29:09;11.10;40.50
65582;DHT22;52231;40.090;18.348;2024-01-30T09:31:38;11.00;39.10
65582;DHT22;52231;40.090;18.348;2024-01-30T09:34:06;11.10;40.60
65582;DHT22;52231;40.090;18.348;2024-01-30T09:36:34;11.10;40.30
65582;DHT22;52231;40.090;18.348;2024-01-30T09:39:02;11.20;41.00
65582;DHT22;52231;40.090;18.348;2024-01-30T09:44:40;11.50;41.50
65582;DHT22;52231;40.090;18.348;2024-01-30T09:47:11;11.50;42.00
65582;DHT22;52231;40.090;18.348;2024-01-30T09:49:42;11.40;41.30
65582;DHT22;52231;40.090;18.348;2024-01-30T09:52:11;11.60;42.50
65582;DHT22;52231;40.090;18.348;2024-01-30T09:54:40;11.60;42.20
65582;DHT22;52231;40.090;18.348;2024-01-30T09:57:09;11.50;42.70
65582;DHT22;52231;40.090;18.348;2024-01-30T09:59:39;11.50;42.30
65582;DHT22;52231;40.090;18.348;2024-01-30T10:02:07;11.50;41.90
65582;DHT22;52231;40.090;18.348;2024-01-30T10:04:36;11.50;39.90
65582;DHT22;52231;40.090;18.348;2024-01-30T10:07:04;11.40;39.60
65582;DHT22;52231;40.090;18.348;2024-01-30T10:09:33;11.50;40.60
65582;DHT22;52231;40.090;18.348;2024-01-30T10:12:03;11.50;40.80
65582;DHT22;52231;40.090;18.348;2024-01-30T10:14:31;11.50;40.30
65582;DHT22;52231;40.090;18.348;2024-01-30T10:17:01;11.60;40.50
65582;DHT22;52231;40.090;18.348;2024-01-30T10:19:32;11.70;40.00
65582;DHT22;52231;40.090;18.348;2024-01-30T10:22:00;11.60;40.50
65582;DHT22;52231;40.090;18.348;2024-01-30T10:24:34;11.60;41.90
65582;DHT22;52231;40.090;18.348;2024-01-30T10:27:02;11.50;41.70
65582;DHT22;52231;40.090;18.348;2024-01-30T10:29:31;11.60;42.40
65582;DHT22;52231;40.090;18.348;2024-01-30T10:32:03;11.80;41.90
65582;DHT22;52231;40.090;18.348;2024-01-30T10:34:32;11.60;42.50
65582;DHT22;52231;40.090;18.348;2024-01-30T10:37:09;11.70;42.10
65582;DHT22;52231;40.090;18.348;2024-01-30T10:39:44;11.70;40.40
65582;DHT22;52231;40.090;18.348;2024-01-30T10:42:18;11.60;39.90
65582;DHT22;52231;40.090;18.348;2024-01-30T10:45:06;11.80;40.80
65582;DHT22;52231;40.090;18.348;2024-01-30T10:47:37;11.90;40.70
65582;DHT22;52231;40.090;18.348;2024-01-30T10:50:11;11.90;38.40
65582;DHT22;52231;40.090;18.348;2024-01-30T10:52:39;11.80;39.10
65582;DHT22;52231;40.090;18.348;2024-01-30T10:55:10;11.80;38.10
65582;DHT22;52231;40.090;18.348;2024-01-30T10:57:38;11.80;38.80
65582;DHT22;52231;40.090;18.348;2024-01-30T11:00:11;11.90;39.30
65582;DHT22;52231;40.090;18.348;2024-01-30T11:02:43;11.90;39.10
65582;DHT22;52231;40.090;18.348;2024-01-30T11:05:12;11.90;39.20
65582;DHT22;52231;40.090;18.348;2024-01-30T11:07:40;12.00;39.80
65582;DHT22;52231;40.090;18.348;2024-01-30T11:10:09;12.10;38.10
65582;DHT22;52231;40.090;18.348;2024-01-30T11:12:40;12.10;37.30
65582;DHT22;52231;40.090;18.348;2024-01-30T11:15:12;12.00;37.50
65582;DHT22;52231;40.090;18.348;2024-01-30T11:22:50;12.10;38.00
65582;DHT22;52231;40.090;18.348;2024-01-30T11:25:20;12.10;38.90
65582;DHT22;52231;40.090;18.348;2024-01-30T11:27:50;12.20;39.60
65582;DHT22;52231;40.090;18.348;2024-01-30T11:30:31;12.20;39.20
65582;DHT22;52231;40.090;18.348;2024-01-30T11:33:30;12.10;39.20
65582;DHT22;52231;40.090;18.348;2024-01-30T11:36:00;12.20;39.50
65582;DHT22;52231;40.090;18.348;2024-01-30T11:38:34;12.20;39.40
65582;DHT22;52231;40.090;18.348;2024-01-30T11:41:03;12.30;40.70
65582;DHT22;52231;40.090;18.348;2024-01-30T11:43:32;12.30;40.00
65582;DHT22;52231;40.090;18.348;2024-01-30T11:46:01;12.20;40.10
65582;DHT22;52231;40.090;18.348;2024-01-30T11:48:30;12.00;40.10
65582;DHT22;52231;40.090;18.348;2024-01-30T11:50:58;12.00;40.50
65582;DHT22;52231;40.090;18.348;2024-01-30T11:53:27;12.00;40.50
65582;DHT22;52231;40.090;18.348;2024-01-30T11:55:55;12.20;40.80
65582;DHT22;52231;40.090;18.348;2024-01-30T11:58:25;12.20;39.80
65582;DHT22;52231;40.090;18.348;2024-01-30T12:00:55;12.10;39.40
65582;DHT22;52231;40.090;18.348;2024-01-30T12:03:24;12.20;41.10
65582;DHT22;52231;40.090;18.348;2024-01-30T12:05:58;12.20;40.80
65582;DHT22;52231;40.090;18.348;2024-01-30T12:08:27;12.30;41.20
65582;DHT22;52231;40.090;18.348;2024-01-30T12:10:59;12.40;41.10
65582;DHT22;52231;40.090;18.348;2024-01-30T12:13:31;12.40;40.10
65582;DHT22;52231;40.090;18.348;2024-01-30T12:16:00;12.20;40.10
65582;DHT22;52231;40.090;18.348;2024-01-30T12:18:29;12.10;40.10
65582;DHT22;52231;40.090;18.348;2024-01-30T12:21:01;12.10;40.00
65582;DHT22;52231;40.090;18.348;2024-01-30T12:23:29;12.00;39.70
65582;DHT22;52231;40.090;18.348;2024-01-30T12:25:57;12.00;40.20
65582;DHT22;52231;40.090;18.348;2024-01-30T12:28:26;12.10;40.10
65582;DHT22;52231;40.090;18.348;2024-01-30T12:31:04;12.10;39.90
65582;DHT22;52231;40.090;18.348;2024-01-30T12:33:32;12.20;39.40
65582;DHT22;52231;40.090;18.348;2024-01-30T12:36:04;12.20;37.90
65582;DHT22;52231;40.090;18.348;2024-01-30T12:38:33;12.20;37.40
65582;DHT22;52231;40.090;18.348;2024-01-30T12:41:01;12.20;37.20
65582;DHT22;52231;40.090;18.348;2024-01-30T12:43:29;12.10;36.90
65582;DHT22;52231;40.090;18.348;2024-01-30T12:45:58;12.00;38.50
65582;DHT22;52231;40.090;18.348;2024-01-30T12:48:27;12.00;37.40
65582;DHT22;52231;40.090;18.348;2024-01-30T12:50:58;12.00;37.50
65582;DHT22;52231;40.090;18.348;2024-01-30T12:53:26;12.00;37.60
65582;DHT22;52231;40.090;18.348;2024-01-30T12:55:54;12.00;37.10
65582;DHT22;52231;40.090;18.348;2024-01-30T12:58:22;11.90;37.10
65582;DHT22;52231;40.090;18.348;2024-01-30T13:00:51;11.90;38.10
65582;DHT22;52231;40.090;18.348;2024-01-30T13:03:19;11.80;37.20
65582;DHT22;52231;40.090;18.348;2024-01-30T13:05:48;11.90;37.90
65582;DHT22;52231;40.090;18.348;2024-01-30T13:08:17;11.80;37.60
65582;DHT22;52231;40.090;18.348;2024-01-30T13:10:45;11.70;36.90
65582;DHT22;52231;40.090;18.348;2024-01-30T13:13:14;11.60;38.00
65582;DHT22;52231;40.090;18.348;2024-01-30T13:15:43;11.70;38.60
65582;DHT22;52231;40.090;18.348;2024-01-30T13:18:11;11.60;37.20
65582;DHT22;52231;40.090;18.348;2024-01-30T13:20:39;11.50;38.20
65582;DHT22;52231;40.090;18.348;2024-01-30T13:23:08;11.40;38.80
65582;DHT22;52231;40.090;18.348;2024-01-30T13:25:36;11.50;39.50
65582;DHT22;52231;40.090;18.348;2024-01-30T13:28:04;11.50;40.20
65582;DHT22;52231;40.090;18.348;2024-01-30T13:30:33;11.50;40.10
65582;DHT22;52231;40.090;18.348;2024-01-30T13:33:01;11.40;40.90
65582;DHT22;52231;40.090;18.348;2024-01-30T13:35:31;11.50;41.80
65582;DHT22;52231;40.090;18.348;2024-01-30T13:37:59;11.40;40.80
65582;DHT22;52231;40.090;18.348;2024-01-30T13:40:28;11.30;41.10
65582;DHT22;52231;40.090;18.348;2024-01-30T13:42:56;11.30;41.40
65582;DHT22;52231;40.090;18.348;2024-01-30T13:45:25;11.30;41.70
65582;DHT22;52231;40.090;18.348;2024-01-30T13:47:55;11.20;42.40
65582;DHT22;52231;40.090;18.348;2024-01-30T13:50:26;11.10;42.40
65582;DHT22;52231;40.090;18.348;2024-01-30T13:52:55;11.10;43.10
65582;DHT22;52231;40.090;18.348;2024-01-30T13:55:24;11.00;43.80
65582;DHT22;52231;40.090;18.348;2024-01-30T13:57:53;11.00;43.40
65582;DHT22;52231;40.090;18.348;2024-01-30T14:00:22;10.90;44.40
65582;DHT22;52231;40.090;18.348;2024-01-30T14:02:51;10.90;44.80
65582;DHT22;52231;40.090;18.348;2024-01-30T14:05:19;10.80;45.10
65582;DHT22;52231;40.090;18.348;2024-01-30T14:07:49;10.90;45.20
65582;DHT22;52231;40.090;18.348;2024-01-30T14:10:25;10.80;44.50
65582;DHT22;52231;40.090;18.348;2024-01-30T14:12:53;10.70;45.70
65582;DHT22;52231;40.090;18.348;2024-01-30T14:15:22;10.70;44.10
65582;DHT22;52231;40.090;18.348;2024-01-30T14:17:50;10.70;44.80
65582;DHT22;52231;40.090;18.348;2024-01-30T14:20:18;10.60;46.10
65582;DHT22;52231;40.090;18.348;2024-01-30T14:22:47;10.60;46.30
65582;DHT22;52231;40.090;18.348;2024-01-30T14:25:15;10.60;46.60
65582;DHT22;52231;40.090;18.348;2024-01-30T14:27:45;10.60;47.80
65582;DHT22;52231;40.090;18.348;2024-01-30T14:30:13;10.60;48.90
65582;DHT22;52231;40.090;18.348;2024-01-30T14:32:42;10.50;48.40
65582;DHT22;52231;40.090;18.348;2024-01-30T14:35:12;10.40;48.60
65582;DHT22;52231;40.090;18.348;2024-01-30T14:37:44;10.30;47.00
65582;DHT22;52231;40.090;18.348;2024-01-30T14:40:12;10.30;47.40
65582;DHT22;52231;40.090;18.348;2024-01-30T14:42:41;10.20;48.10
65582;DHT22;52231;40.090;18.348;2024-01-30T14:45:09;10.20;47.50
65582;DHT22;52231;40.090;18.348;2024-01-30T14:47:37;10.10;48.20
65582;DHT22;52231;40.090;18.348;2024-01-30T14:50:06;10.00;48.50
65582;DHT22;52231;40.090;18.348;2024-01-30T14:52:35;9.90;49.00
65582;DHT22;52231;40.090;18.348;2024-01-30T14:55:03;9.90;48.50
65582;DHT22;52231;40.090;18.348;2024-01-30T14:57:32;9.80;49.10
65582;DHT22;52231;40.090;18.348;2024-01-30T15:00:02;9.70;49.80
65582;DHT22;52231;40.090;18.348;2024-01-30T15:02:31;9.70;50.90
65582;DHT22;52231;40.090;18.348;2024-01-30T15:04:59;9.60;52.40
65582;DHT22;52231;40.090;18.348;2024-01-30T15:07:27;9.50;53.50
65582;DHT22;52231;40.090;18.348;2024-01-30T15:09:59;9.40;54.40
65582;DHT22;52231;40.090;18.348;2024-01-30T15:12:27;9.30;54.30
65582;DHT22;52231;40.090;18.348;2024-01-30T15:14:55;9.30;54.50
65582;DHT22;52231;40.090;18.348;2024-01-30T15:17:23;9.10;55.00
65582;DHT22;52231;40.090;18.348;2024-01-30T15:19:52;9.00;55.20
65582;DHT22;52231;40.090;18.348;2024-01-30T15:22:20;8.90;55.70
65582;DHT22;52231;40.090;18.348;2024-01-30T15:24:48;8.80;55.80
65582;DHT22;52231;40.090;18.348;2024-01-30T15:27:16;8.80;56.60
65582;DHT22;52231;40.090;18.348;2024-01-30T15:29:44;8.70;57.00
65582;DHT22;52231;40.090;18.348;2024-01-30T15:32:12;8.60;56.70
65582;DHT22;52231;40.090;18.348;2024-01-30T15:34:40;8.50;57.30
65582;DHT22;52231;40.090;18.348;2024-01-30T15:37:08;8.50;57.60
65582;DHT22;52231;40.090;18.348;2024-01-30T15:39:37;8.40;58.20
65582;DHT22;52231;40.090;18.348;2024-01-30T15:42:05;8.30;58.80
65582;DHT22;52231;40.090;18.348;2024-01-30T15:44:33;8.20;59.40
65582;DHT22;52231;40.090;18.348;2024-01-30T15:47:02;8.10;60.10
65582;DHT22;52231;40.090;18.348;2024-01-30T15:49:30;8.00;60.60
65582;DHT22;52231;40.090;18.348;2024-01-30T15:51:58;7.90;61.10
65582;DHT22;52231;40.090;18.348;2024-01-30T15:54:26;7.80;61.50
65582;DHT22;52231;40.090;18.348;2024-01-30T15:56:54;7.80;62.10
65582;DHT22;52231;40.090;18.348;2024-01-30T15:59:23;7.70;62.20
65582;DHT22;52231;40.090;18.348;2024-01-30T16:01:51;7.60;62.80
65582;DHT22;52231;40.090;18.348;2024-01-30T16:04:19;7.50;63.10
65582;DHT22;52231;40.090;18.348;2024-01-30T16:06:49;7.40;63.80
65582;DHT22;52231;40.090;18.348;2024-01-30T16:09:17;7.30;64.20
65582;DHT22;52231;40.090;18.348;2024-01-30T16:11:45;7.30;64.50